Time;durP1;ratioP1;P1;durP2;ratioP2;P2;SDS_P1;SDS_P2;PMS_P1;PMS_P2;Temp;Humidity;BMP_temperature;BMP_pressure;BME280_temperature;BME280_humidity;BME280_pressure;Samples;Min_cycle;Max_cycle;Signal;HPM_P1;HPM_P2
2022/07/29 00:01:27;;;;;;;3.20;2.10;;;19.10;98.00;;;;;;5011207;28;20248;-70
2022/07/29 00:03:54;;;;;;;5.20;2.23;;;19.00;98.20;;;;;;5010989;28;20497;-70
2022/07/29 00:06:20;;;;;;;5.83;2.13;;;19.00;98.40;;;;;;5011141;28;20335;-70
2022/07/29 00:08:49;;;;;;;8.10;2.60;;;19.00;98.60;;;;;;5029227;28;20201;-72
2022/07/29 00:11:15;;;;;;;4.23;2.73;;;18.90;98.60;;;;;;5030099;28;20205;-72
2022/07/29 00:13:42;;;;;;;2.67;2.47;;;18.90;98.80;;;;;;5029095;28;20201;-72
2022/07/29 00:16:09;;;;;;;3.83;2.70;;;18.90;98.90;;;;;;5030660;28;20317;-72
2022/07/29 00:18:36;;;;;;;4.57;2.63;;;18.80;99.10;;;;;;5030602;28;20209;-72
2022/07/29 00:21:06;;;;;;;4.20;2.50;;;18.80;99.30;;;;;;5030564;28;20595;-72
2022/07/29 00:23:33;;;;;;;5.43;3.10;;;18.90;99.30;;;;;;5030091;28;20229;-72
2022/07/29 00:26:01;;;;;;;4.60;2.80;;;18.90;99.30;;;;;;5029870;28;20690;-72
2022/07/29 00:28:28;;;;;;;3.43;2.73;;;18.90;99.30;;;;;;5028972;28;20200;-72
2022/07/29 00:30:55;;;;;;;4.13;2.90;;;18.90;99.30;;;;;;5030590;28;20235;-72
2022/07/29 00:33:23;;;;;;;4.77;2.67;;;18.90;99.40;;;;;;5028504;28;20295;-72
2022/07/29 00:35:49;;;;;;;3.97;3.27;;;18.90;99.50;;;;;;5030191;28;20711;-72
2022/07/29 00:38:17;;;;;;;3.00;2.80;;;18.80;99.60;;;;;;5029919;28;20687;-73
2022/07/29 00:40:45;;;;;;;4.53;3.13;;;18.80;99.70;;;;;;5030361;28;20216;-72
2022/07/29 00:43:14;;;;;;;3.47;2.90;;;18.80;99.90;;;;;;5016575;28;20233;-72
2022/07/29 00:45:41;;;;;;;7.47;2.87;;;18.70;99.90;;;;;;5010285;28;20715;-73
2022/07/29 00:48:08;;;;;;;4.00;3.20;;;18.70;99.90;;;;;;5010045;28;20720;-72
2022/07/29 00:50:36;;;;;;;5.30;3.10;;;18.70;99.90;;;;;;5021739;28;20236;-71
2022/07/29 00:53:04;;;;;;;5.30;3.03;;;18.70;99.90;;;;;;5021331;28;20225;-71
2022/07/29 00:55:31;;;;;;;5.53;3.33;;;18.80;99.90;;;;;;5029640;28;20961;-71
2022/07/29 00:57:59;;;;;;;4.53;3.33;;;18.70;99.90;;;;;;5029590;28;20248;-71
2022/07/29 01:00:29;;;;;;;3.60;2.70;;;18.70;99.90;;;;;;5029900;28;20209;-71
2022/07/29 01:02:55;;;;;;;4.90;2.93;;;18.60;99.90;;;;;;5029192;28;20229;-71
2022/07/29 01:05:25;;;;;;;5.30;3.27;;;18.60;99.90;;;;;;5029332;28;20576;-71
2022/07/29 01:07:54;;;;;;;3.50;2.90;;;18.60;99.90;;;;;;5029896;28;20208;-71
2022/07/29 01:10:23;;;;;;;4.97;3.07;;;18.60;99.90;;;;;;5029568;28;20215;-70
2022/07/29 01:12:52;;;;;;;6.57;3.23;;;18.50;99.90;;;;;;5020090;28;20198;-68
2022/07/29 01:15:19;;;;;;;4.20;3.30;;;18.50;99.90;;;;;;5011003;28;20705;-68
2022/07/29 01:17:54;;;;;;;2.93;2.63;;;18.40;99.90;;;;;;5010177;28;20202;-68
2022/07/29 01:20:27;;;;;;;3.07;2.87;;;18.40;99.90;;;;;;5010124;28;20213;-69
2022/07/29 01:23:31;;;;;;;4.40;2.70;;;18.30;99.90;;;;;;5019524;28;20221;-68
2022/07/29 01:26:38;;;;;;;4.80;3.17;;;18.40;99.90;;;;;;5022632;28;20671;-68
2022/07/29 01:29:16;;;;;;;3.10;2.90;;;18.40;99.90;;;;;;4948451;29;20718;-69
2022/07/29 01:31:47;;;;;;;3.23;2.90;;;18.30;99.90;;;;;;4948451;29;20203;-68
2022/07/29 01:34:22;;;;;;;4.47;3.33;;;18.40;99.90;;;;;;4986631;28;20212;-68
2022/07/29 01:36:55;;;;;;;7.13;3.17;;;18.40;99.90;;;;;;5029232;28;20227;-68
2022/07/29 01:39:27;;;;;;;3.20;2.90;;;18.20;99.90;;;;;;5028771;28;20198;-68
2022/07/29 01:42:00;;;;;;;3.80;2.87;;;18.30;99.90;;;;;;5027219;28;20639;-68
2022/07/29 01:44:36;;;;;;;3.97;3.07;;;18.30;99.90;;;;;;5009226;28;20232;-68
2022/07/29 01:47:10;;;;;;;5.93;3.10;;;18.30;99.90;;;;;;5008905;28;20225;-69
2022/07/29 01:49:43;;;;;;;3.40;3.10;;;18.30;99.90;;;;;;5009211;28;20202;-69
2022/07/29 01:52:20;;;;;;;6.47;3.57;;;18.30;99.90;;;;;;5009276;28;20198;-69
2022/07/29 01:54:53;;;;;;;3.50;3.20;;;18.30;99.90;;;;;;5026925;28;20216;-67
2022/07/29 01:57:25;;;;;;;4.13;3.00;;;18.30;99.90;;;;;;5028156;28;20275;-68
2022/07/29 01:59:56;;;;;;;7.10;3.33;;;18.30;99.90;;;;;;5028791;28;20193;-69
2022/07/29 02:02:24;;;;;;;3.90;3.00;;;18.30;99.90;;;;;;5010283;28;20209;-68
2022/07/29 02:04:52;;;;;;;3.13;2.83;;;18.20;99.90;;;;;;5009051;28;20205;-68
2022/07/29 02:07:24;;;;;;;3.60;2.87;;;18.30;99.90;;;;;;5008456;28;20240;-68
2022/07/29 02:09:52;;;;;;;4.03;3.10;;;18.20;99.90;;;;;;5008741;28;20244;-68
2022/07/29 02:12:20;;;;;;;4.83;3.27;;;18.20;99.90;;;;;;5008921;28;20216;-67
2022/07/29 02:14:49;;;;;;;3.47;2.97;;;18.20;99.90;;;;;;5014555;28;20798;-67
2022/07/29 02:17:24;;;;;;;5.17;3.20;;;18.10;99.90;;;;;;5027320;28;20197;-68
2022/07/29 02:19:52;;;;;;;4.90;2.70;;;18.00;99.90;;;;;;5027650;28;20195;-68
2022/07/29 02:22:20;;;;;;;4.13;2.80;;;18.00;99.90;;;;;;5027789;28;20768;-67
2022/07/29 02:24:48;;;;;;;6.03;3.10;;;18.00;99.90;;;;;;5023569;28;20849;-67
2022/07/29 02:27:16;;;;;;;4.80;3.20;;;18.00;99.90;;;;;;5025690;28;20213;-67
2022/07/29 02:29:44;;;;;;;3.60;3.00;;;18.00;99.90;;;;;;5025861;28;20211;-68
2022/07/29 02:32:12;;;;;;;5.27;3.20;;;17.90;99.90;;;;;;5026166;28;20216;-67
2022/07/29 02:34:42;;;;;;;5.57;3.03;;;17.90;99.90;;;;;;5021670;28;20205;-67
2022/07/29 02:37:10;;;;;;;3.47;2.60;;;17.90;99.90;;;;;;5006504;28;20318;-69
2022/07/29 02:39:39;;;;;;;3.33;3.00;;;17.90;99.90;;;;;;5006261;28;20208;-68
2022/07/29 02:42:10;;;;;;;5.27;3.00;;;17.90;99.90;;;;;;5005736;28;20213;-67
2022/07/29 02:44:38;;;;;;;3.90;3.17;;;17.90;99.90;;;;;;5009873;28;20312;-69
2022/07/29 02:47:11;;;;;;;2.90;2.70;;;17.90;99.90;;;;;;5025794;28;20282;-69
2022/07/29 02:49:43;;;;;;;3.00;2.70;;;17.90;99.90;;;;;;5025414;28;20199;-69
2022/07/29 02:52:16;;;;;;;5.30;2.80;;;17.80;99.90;;;;;;5025360;28;20193;-69
2022/07/29 02:54:53;;;;;;;4.30;2.90;;;17.80;99.90;;;;;;5024737;28;20671;-69
2022/07/29 02:57:23;;;;;;;3.67;2.70;;;17.80;99.90;;;;;;5025395;28;20610;-69
2022/07/29 02:59:53;;;;;;;3.77;2.53;;;17.90;99.90;;;;;;5025555;28;20686;-68
2022/07/29 03:02:22;;;;;;;4.20;2.70;;;17.80;99.90;;;;;;5026197;28;20204;-67
2022/07/29 03:04:52;;;;;;;6.73;3.00;;;17.80;99.90;;;;;;5025575;28;20221;-69
2022/07/29 03:07:21;;;;;;;3.37;2.83;;;17.80;99.90;;;;;;5022436;28;20663;-69
2022/07/29 03:09:48;;;;;;;5.60;3.30;;;17.80;99.90;;;;;;5010030;28;20668;-67
2022/07/29 03:12:15;;;;;;;6.80;2.90;;;17.70;99.90;;;;;;5008735;28;20219;-67
2022/07/29 03:14:43;;;;;;;4.03;3.00;;;17.80;99.90;;;;;;5008808;28;20205;-66
2022/07/29 03:17:10;;;;;;;4.40;2.80;;;17.70;99.90;;;;;;5022594;28;20212;-67
2022/07/29 03:19:37;;;;;;;2.93;2.73;;;17.70;99.90;;;;;;5025570;28;20211;-67
2022/07/29 03:22:06;;;;;;;3.20;2.90;;;17.70;99.90;;;;;;5024967;28;20212;-66
2022/07/29 03:24:35;;;;;;;4.40;2.97;;;17.70;99.90;;;;;;5025287;28;20247;-67
2022/07/29 03:27:02;;;;;;;6.07;2.47;;;17.80;99.90;;;;;;5025225;28;20205;-67
2022/07/29 03:29:30;;;;;;;4.10;2.93;;;17.80;99.90;;;;;;5026081;28;20579;-66
2022/07/29 03:31:57;;;;;;;4.57;2.57;;;17.80;99.90;;;;;;5026984;28;20204;-67
2022/07/29 03:34:23;;;;;;;5.07;2.63;;;17.70;99.90;;;;;;5027441;28;20311;-67
2022/07/29 03:36:50;;;;;;;3.27;2.77;;;17.60;99.90;;;;;;5027585;28;20231;-66
2022/07/29 03:39:23;;;;;;;5.13;2.60;;;17.50;99.90;;;;;;5027419;28;20209;-66
2022/07/29 03:41:56;;;;;;;3.67;2.90;;;17.50;99.90;;;;;;5026962;28;20197;-66
2022/07/29 03:44:24;;;;;;;2.73;2.50;;;17.60;99.90;;;;;;5027067;28;20252;-66
2022/07/29 03:46:53;;;;;;;4.43;2.83;;;17.50;99.90;;;;;;5027273;28;20233;-66
2022/07/29 03:49:22;;;;;;;3.23;2.93;;;17.50;99.90;;;;;;5026775;28;20213;-67
2022/07/29 03:51:49;;;;;;;3.17;2.53;;;17.50;99.90;;;;;;5027451;28;20307;-66
2022/07/29 03:54:16;;;;;;;3.20;2.67;;;17.50;99.90;;;;;;5026754;28;20683;-66
2022/07/29 03:56:47;;;;;;;5.93;3.00;;;17.40;99.90;;;;;;5026864;28;20247;-66
2022/07/29 03:59:14;;;;;;;4.83;2.70;;;17.30;99.90;;;;;;5027012;28;20622;-66
2022/07/29 04:01:43;;;;;;;2.90;2.50;;;17.20;99.90;;;;;;5028161;28;20197;-66
2022/07/29 04:04:10;;;;;;;5.83;2.80;;;17.20;99.90;;;;;;5030695;28;20232;-66
2022/07/29 04:06:41;;;;;;;4.60;2.60;;;17.20;99.90;;;;;;5030742;28;20231;-66
2022/07/29 04:09:08;;;;;;;3.53;3.03;;;17.20;99.90;;;;;;5030513;28;20247;-66
2022/07/29 04:11:36;;;;;;;3.50;2.53;;;17.20;99.90;;;;;;5030571;28;20208;-66
2022/07/29 04:14:04;;;;;;;4.00;2.80;;;17.30;99.90;;;;;;5030266;28;20698;-66
2022/07/29 04:16:32;;;;;;;4.70;2.60;;;17.20;99.90;;;;;;5030318;28;20215;-66
2022/07/29 04:18:59;;;;;;;4.27;2.80;;;17.20;99.90;;;;;;5030485;28;20219;-66
2022/07/29 04:21:25;;;;;;;4.63;2.70;;;17.20;99.90;;;;;;5030330;28;20682;-66
2022/07/29 04:23:52;;;;;;;4.47;2.97;;;17.30;99.90;;;;;;5030540;28;20241;-69
2022/07/29 04:26:20;;;;;;;3.37;2.63;;;17.30;99.90;;;;;;5030396;28;20215;-69
2022/07/29 04:28:47;;;;;;;6.47;3.00;;;17.40;99.90;;;;;;5030213;28;20205;-69
2022/07/29 04:31:16;;;;;;;3.73;2.60;;;17.40;99.90;;;;;;5030395;28;20213;-66
2022/07/29 04:33:42;;;;;;;13.80;3.57;;;17.40;99.90;;;;;;5030491;28;20213;-66
2022/07/29 04:36:10;;;;;;;6.17;2.97;;;17.40;99.90;;;;;;5030208;28;20232;-66
2022/07/29 04:38:38;;;;;;;4.47;2.97;;;17.40;99.90;;;;;;5030748;28;20212;-66
2022/07/29 04:41:08;;;;;;;7.50;3.00;;;17.40;99.90;;;;;;5029719;28;20213;-67
2022/07/29 04:43:35;;;;;;;3.40;2.70;;;17.40;99.90;;;;;;5030156;28;20316;-69
2022/07/29 04:46:04;;;;;;;4.87;3.03;;;17.50;99.90;;;;;;5030316;28;20287;-69
2022/07/29 04:48:32;;;;;;;3.37;2.93;;;17.50;99.90;;;;;;5030468;28;20358;-69
2022/07/29 04:50:59;;;;;;;3.00;2.73;;;17.50;99.90;;;;;;5030346;28;20655;-69
2022/07/29 04:53:26;;;;;;;5.13;3.50;;;17.60;99.90;;;;;;5030454;28;20558;-68
2022/07/29 04:55:53;;;;;;;6.10;3.43;;;17.50;99.90;;;;;;5029655;28;20211;-69
2022/07/29 04:58:20;;;;;;;7.23;3.20;;;17.60;99.90;;;;;;5030221;28;20203;-70
2022/07/29 05:00:47;;;;;;;14.93;3.63;;;17.60;99.90;;;;;;5029945;28;20208;-69
2022/07/29 05:03:13;;;;;;;7.90;3.03;;;17.60;99.90;;;;;;5029806;28;20226;-69
2022/07/29 05:05:42;;;;;;;5.37;3.13;;;17.60;99.90;;;;;;5030364;28;20208;-69
2022/07/29 05:08:09;;;;;;;8.90;3.00;;;17.60;99.90;;;;;;5029902;28;20212;-69
2022/07/29 05:10:37;;;;;;;4.10;2.77;;;17.70;99.90;;;;;;5025812;28;20316;-69
2022/07/29 05:13:05;;;;;;;6.53;2.83;;;17.80;99.90;;;;;;5025210;28;20226;-69
2022/07/29 05:15:32;;;;;;;4.37;2.83;;;17.80;99.90;;;;;;5029516;28;20667;-69
2022/07/29 05:17:58;;;;;;;8.33;2.70;;;17.80;99.90;;;;;;5029806;28;20215;-69
2022/07/29 05:20:28;;;;;;;4.87;3.00;;;17.90;99.90;;;;;;5029289;28;20212;-69
2022/07/29 05:22:56;;;;;;;7.37;2.90;;;18.00;99.90;;;;;;5029950;28;20578;-69
2022/07/29 05:25:23;;;;;;;5.23;2.93;;;18.00;99.90;;;;;;5028976;28;20998;-70
2022/07/29 05:27:50;;;;;;;6.63;2.90;;;18.00;99.90;;;;;;5029617;28;20211;-69
2022/07/29 05:30:17;;;;;;;4.80;3.00;;;18.00;99.90;;;;;;5029333;28;20262;-69
2022/07/29 05:32:43;;;;;;;5.50;3.03;;;18.00;99.90;;;;;;5029054;28;20430;-69
2022/07/29 05:35:11;;;;;;;6.67;3.20;;;18.10;99.90;;;;;;5029389;28;20208;-69
2022/07/29 05:37:38;;;;;;;8.40;3.00;;;18.10;99.90;;;;;;5029126;28;20220;-69
2022/07/29 05:40:07;;;;;;;5.03;2.70;;;18.10;99.90;;;;;;5028934;28;20209;-69
2022/07/29 05:42:35;;;;;;;4.10;3.00;;;18.10;99.90;;;;;;5028801;28;20266;-67
2022/07/29 05:45:02;;;;;;;3.17;2.73;;;18.00;99.90;;;;;;5028596;28;20232;-68
2022/07/29 05:47:30;;;;;;;3.73;2.27;;;18.10;99.90;;;;;;5028883;28;20252;-67
2022/07/29 05:49:57;;;;;;;3.40;3.10;;;18.20;99.90;;;;;;5028923;28;20299;-67
2022/07/29 05:52:23;;;;;;;5.37;2.87;;;18.20;99.90;;;;;;5028763;28;20327;-68
2022/07/29 05:54:50;;;;;;;5.57;2.33;;;18.20;99.90;;;;;;5028845;28;20212;-68
2022/07/29 05:57:19;;;;;;;5.00;2.70;;;18.20;99.90;;;;;;5028032;28;20239;-68
2022/07/29 05:59:46;;;;;;;5.00;2.80;;;18.30;99.90;;;;;;5028447;28;20663;-68
2022/07/29 06:02:13;;;;;;;3.73;2.70;;;18.30;99.90;;;;;;5028522;28;20251;-67
2022/07/29 06:04:40;;;;;;;4.97;2.90;;;18.40;99.90;;;;;;5028898;28;20255;-67
2022/07/29 06:07:07;;;;;;;4.40;2.40;;;18.50;99.90;;;;;;5028546;28;20209;-67
2022/07/29 06:09:34;;;;;;;9.50;2.93;;;18.50;99.90;;;;;;5028168;28;20663;-67
2022/07/29 06:12:01;;;;;;;6.30;2.73;;;18.50;99.90;;;;;;5028232;28;20572;-68
2022/07/29 06:14:29;;;;;;;7.53;2.87;;;18.50;99.90;;;;;;5028431;28;20223;-68
2022/07/29 06:16:56;;;;;;;9.47;3.03;;;18.60;99.90;;;;;;5027814;28;20208;-68
2022/07/29 06:19:23;;;;;;;8.60;3.23;;;18.60;99.90;;;;;;5027951;28;20676;-67
2022/07/29 06:21:50;;;;;;;6.67;2.87;;;18.60;99.90;;;;;;5028125;28;20291;-67
2022/07/29 06:24:17;;;;;;;4.73;2.73;;;18.70;99.90;;;;;;5027701;28;20323;-67
2022/07/29 06:26:44;;;;;;;6.87;2.83;;;18.70;99.90;;;;;;5027869;28;20664;-68
2022/07/29 06:29:12;;;;;;;6.47;3.13;;;18.70;99.90;;;;;;5028003;28;20209;-68
2022/07/29 06:31:40;;;;;;;6.03;3.10;;;18.80;99.90;;;;;;5028190;28;20288;-68
2022/07/29 06:34:07;;;;;;;6.20;2.80;;;18.80;99.90;;;;;;5027339;28;20773;-67
2022/07/29 06:36:36;;;;;;;7.20;3.30;;;18.80;99.90;;;;;;5027800;28;20276;-67
2022/07/29 06:39:06;;;;;;;4.17;2.70;;;18.90;99.90;;;;;;5027738;28;20201;-67
2022/07/29 06:41:33;;;;;;;6.00;2.80;;;19.00;99.90;;;;;;5027470;28;20690;-67
2022/07/29 06:43:59;;;;;;;7.23;2.80;;;19.00;99.90;;;;;;5027773;28;20211;-68
2022/07/29 06:46:27;;;;;;;5.30;2.80;;;19.00;99.90;;;;;;5027696;28;20215;-69
2022/07/29 06:48:55;;;;;;;6.07;2.70;;;19.10;99.90;;;;;;5027845;28;20218;-70
2022/07/29 06:51:22;;;;;;;4.33;3.23;;;19.10;99.90;;;;;;5027697;28;20251;-70
2022/07/29 06:53:49;;;;;;;7.93;3.17;;;19.20;99.90;;;;;;5027466;28;20300;-70
2022/07/29 06:56:16;;;;;;;6.63;2.90;;;19.20;99.90;;;;;;5027125;28;20263;-70
2022/07/29 06:58:43;;;;;;;4.03;2.80;;;19.20;99.90;;;;;;5027939;28;20197;-70
2022/07/29 07:01:09;;;;;;;7.37;2.90;;;19.30;99.90;;;;;;5027505;28;20213;-70
2022/07/29 07:03:36;;;;;;;6.10;3.03;;;19.40;99.90;;;;;;5027414;28;20727;-70
2022/07/29 07:06:07;;;;;;;6.30;3.30;;;19.40;99.90;;;;;;5027453;28;20742;-70
2022/07/29 07:08:34;;;;;;;8.23;3.50;;;19.40;99.90;;;;;;5027414;28;20299;-70
2022/07/29 07:11:01;;;;;;;7.07;2.70;;;19.50;99.90;;;;;;5027277;28;20204;-69
2022/07/29 07:13:27;;;;;;;8.00;3.43;;;19.50;99.90;;;;;;5027414;28;20205;-69
2022/07/29 07:15:54;;;;;;;5.53;3.10;;;19.60;99.90;;;;;;5027876;28;20212;-70
2022/07/29 07:18:21;;;;;;;5.33;3.13;;;19.60;99.90;;;;;;5027637;28;20212;-69
2022/07/29 07:20:48;;;;;;;5.63;2.67;;;19.60;99.90;;;;;;5027822;28;20318;-69
2022/07/29 07:23:16;;;;;;;12.10;3.20;;;19.70;99.90;;;;;;5027327;28;20296;-70
2022/07/29 07:25:43;;;;;;;6.97;3.07;;;19.70;99.90;;;;;;5027432;28;20224;-69
2022/07/29 07:28:10;;;;;;;4.97;3.23;;;19.80;99.90;;;;;;5027348;28;20217;-69
2022/07/29 07:30:37;;;;;;;9.83;2.80;;;19.80;99.90;;;;;;5027285;28;20201;-67
2022/07/29 07:33:04;;;;;;;9.63;2.50;;;19.90;99.90;;;;;;5027272;28;20212;-67
2022/07/29 07:35:31;;;;;;;7.80;3.27;;;19.90;99.90;;;;;;5027285;28;20201;-67
2022/07/29 07:37:58;;;;;;;8.10;3.17;;;20.00;99.90;;;;;;5030770;28;20200;-67
2022/07/29 07:40:26;;;;;;;8.20;3.00;;;20.00;99.90;;;;;;5030682;28;20703;-68
2022/07/29 07:42:53;;;;;;;9.37;2.57;;;20.10;99.90;;;;;;5030929;28;20213;-68
2022/07/29 07:45:20;;;;;;;4.93;2.50;;;20.10;99.90;;;;;;5030913;28;20239;-68
2022/07/29 07:47:47;;;;;;;7.97;3.10;;;20.10;99.90;;;;;;5030860;28;20224;-68
2022/07/29 07:50:13;;;;;;;4.10;2.20;;;20.10;99.90;;;;;;5030985;28;20211;-68
2022/07/29 07:52:48;;;;;;;11.47;2.77;;;20.20;99.90;;;;;;5030817;28;20215;-68
2022/07/29 07:55:15;;;;;;;5.00;2.57;;;20.20;99.90;;;;;;5030602;28;20223;-68
2022/07/29 07:57:44;;;;;;;5.80;2.63;;;20.20;99.90;;;;;;5030668;28;20339;-68
2022/07/29 08:00:12;;;;;;;5.57;2.77;;;20.30;99.90;;;;;;5030460;28;20578;-68
2022/07/29 08:02:39;;;;;;;4.33;2.47;;;20.20;99.90;;;;;;5030608;28;20208;-68
2022/07/29 08:05:07;;;;;;;23.17;4.17;;;20.30;99.90;;;;;;5030149;28;20279;-68
2022/07/29 08:07:34;;;;;;;10.43;2.90;;;20.30;99.90;;;;;;5030822;28;20212;-68
2022/07/29 08:10:01;;;;;;;6.63;3.10;;;20.40;99.90;;;;;;5030748;28;20220;-68
2022/07/29 08:12:28;;;;;;;5.83;2.83;;;20.40;99.90;;;;;;5030662;28;20205;-68
2022/07/29 08:14:56;;;;;;;6.43;2.60;;;20.50;99.90;;;;;;5030543;28;20200;-68
2022/07/29 08:17:22;;;;;;;6.60;2.80;;;20.50;99.90;;;;;;5030543;28;20205;-68
2022/07/29 08:19:49;;;;;;;6.33;2.50;;;20.60;99.90;;;;;;5030231;28;20503;-68
2022/07/29 08:22:16;;;;;;;5.57;2.30;;;20.60;99.90;;;;;;5030263;28;20236;-68
2022/07/29 08:24:43;;;;;;;6.73;2.67;;;20.80;99.90;;;;;;5029872;28;20727;-68
2022/07/29 08:27:10;;;;;;;6.53;2.80;;;20.90;99.90;;;;;;5029818;28;20205;-68
2022/07/29 08:29:37;;;;;;;3.73;2.20;;;20.90;99.90;;;;;;5030281;28;20231;-68
2022/07/29 08:32:06;;;;;;;3.53;2.00;;;21.10;99.30;;;;;;5030412;28;20237;-68
2022/07/29 08:34:33;;;;;;;3.95;2.10;;;21.10;99.60;;;;;;5030377;28;20293;-69
2022/07/29 08:37:00;;;;;;;4.17;2.40;;;21.20;99.60;;;;;;5030173;28;20209;-68
2022/07/29 08:39:27;;;;;;;4.82;1.95;;;21.40;98.90;;;;;;5030076;28;20215;-68
2022/07/29 08:41:54;;;;;;;7.97;2.23;;;21.40;98.80;;;;;;5029620;28;20639;-68
2022/07/29 08:44:22;;;;;;;3.05;1.90;;;21.40;98.50;;;;;;5030163;28;20216;-68
2022/07/29 08:46:50;;;;;;;4.15;1.90;;;21.50;98.40;;;;;;5029755;28;20224;-68
2022/07/29 08:49:18;;;;;;;4.88;2.00;;;21.60;98.40;;;;;;5028461;28;20671;-68
2022/07/29 08:51:45;;;;;;;3.20;1.83;;;21.70;98.20;;;;;;5029788;28;20234;-68
2022/07/29 08:54:17;;;;;;;5.50;2.13;;;21.70;98.10;;;;;;5029749;28;20218;-69
2022/07/29 08:56:44;;;;;;;1.80;1.70;;;21.80;97.90;;;;;;5029699;28;20610;-68
2022/07/29 08:59:12;;;;;;;5.18;2.22;;;21.90;97.70;;;;;;5029779;28;20200;-68
2022/07/29 09:01:40;;;;;;;2.42;2.22;;;22.00;97.20;;;;;;5030125;28;20308;-68
2022/07/29 09:04:12;;;;;;;2.55;1.83;;;22.10;96.50;;;;;;5029788;28;20208;-68
2022/07/29 09:06:43;;;;;;;5.07;1.88;;;22.20;96.30;;;;;;5029961;28;20243;-68
2022/07/29 09:09:11;;;;;;;4.05;1.92;;;22.30;96.20;;;;;;5029814;28;20301;-68
2022/07/29 09:11:38;;;;;;;6.22;2.05;;;22.40;96.30;;;;;;5029720;28;20557;-68
2022/07/29 09:14:05;;;;;;;2.85;2.05;;;22.50;95.70;;;;;;5029723;28;20209;-68
2022/07/29 09:16:53;;;;;;;2.03;1.70;;;22.60;95.80;;;;;;5029458;28;20208;-68
2022/07/29 09:19:29;;;;;;;3.13;1.92;;;22.70;95.30;;;;;;5029719;28;20208;-68
2022/07/29 09:21:58;;;;;;;3.95;1.80;;;22.80;95.10;;;;;;5029636;28;20200;-68
2022/07/29 09:24:26;;;;;;;2.40;1.83;;;22.90;95.30;;;;;;5029147;28;20649;-68
2022/07/29 09:26:53;;;;;;;2.38;1.77;;;23.00;94.90;;;;;;5029375;28;20228;-68
2022/07/29 09:29:24;;;;;;;3.65;1.92;;;23.20;95.10;;;;;;5029115;28;20217;-68
2022/07/29 09:31:53;;;;;;;4.38;1.90;;;23.40;94.30;;;;;;5029194;28;20856;-68
2022/07/29 09:34:23;;;;;;;6.82;2.10;;;23.40;94.10;;;;;;5029218;28;20216;-68
2022/07/29 09:36:52;;;;;;;5.85;2.00;;;23.40;94.10;;;;;;5029184;28;20201;-68
2022/07/29 09:39:30;;;;;;;6.15;2.20;;;23.50;94.20;;;;;;5028764;28;20212;-68
2022/07/29 09:41:59;;;;;;;2.67;1.85;;;23.60;93.40;;;;;;5029121;28;20205;-68
2022/07/29 09:44:26;;;;;;;10.40;1.98;;;23.60;93.40;;;;;;5029071;28;20211;-68
2022/07/29 09:46:58;;;;;;;88.18;7.05;;;23.50;93.50;;;;;;5028756;28;20237;-68
2022/07/29 09:49:25;;;;;;;4.63;2.20;;;23.40;94.00;;;;;;5028410;28;20213;-68
2022/07/29 09:52:07;;;;;;;3.83;1.73;;;23.50;94.20;;;;;;5029036;28;20205;-68
2022/07/29 09:54:39;;;;;;;2.83;1.75;;;23.60;93.50;;;;;;5028767;28;20209;-68
2022/07/29 09:57:07;;;;;;;2.95;1.90;;;23.60;93.30;;;;;;5027995;28;20650;-68
2022/07/29 09:59:34;;;;;;;4.55;1.88;;;23.60;93.00;;;;;;5028496;28;20205;-68
2022/07/29 10:02:01;;;;;;;5.07;1.85;;;23.80;92.80;;;;;;5028567;28;20375;-68
2022/07/29 10:04:41;;;;;;;3.10;1.77;;;23.90;92.50;;;;;;5028287;28;20221;-68
2022/07/29 10:07:08;;;;;;;9.82;2.20;;;24.00;93.10;;;;;;5028175;28;20691;-68
2022/07/29 10:09:36;;;;;;;6.20;2.25;;;24.10;92.60;;;;;;5028154;28;20798;-68
2022/07/29 10:12:05;;;;;;;4.53;2.05;;;24.20;92.00;;;;;;5028340;28;20209;-68
2022/07/29 10:14:33;;;;;;;5.45;1.90;;;24.30;91.90;;;;;;5028113;28;20212;-68
2022/07/29 10:17:01;;;;;;;10.40;2.00;;;24.40;91.10;;;;;;5028075;28;20606;-68
2022/07/29 10:19:30;;;;;;;2.67;1.75;;;24.50;90.60;;;;;;5028225;28;20244;-69
2022/07/29 10:21:58;;;;;;;7.60;1.92;;;24.50;91.00;;;;;;5028329;28;20212;-68
2022/07/29 10:24:26;;;;;;;6.00;1.90;;;24.40;91.00;;;;;;5027820;28;20209;-68
2022/07/29 10:26:55;;;;;;;2.65;1.70;;;24.40;90.80;;;;;;5027669;28;20818;-68
2022/07/29 10:29:22;;;;;;;17.05;3.30;;;24.40;90.60;;;;;;5027634;28;20211;-68
2022/07/29 10:31:57;;;;;;;6.35;2.00;;;24.40;91.00;;;;;;5027926;28;20204;-68
2022/07/29 10:34:37;;;;;;;11.15;2.30;;;24.40;90.60;;;;;;5027549;28;20193;-68
2022/07/29 10:37:14;;;;;;;2.28;2.10;;;24.40;90.70;;;;;;5027689;28;20213;-68
2022/07/29 10:39:51;;;;;;;3.50;2.03;;;24.50;90.50;;;;;;5028148;28;20570;-68
2022/07/29 10:42:23;;;;;;;3.92;1.75;;;24.40;90.40;;;;;;5027664;28;20208;-68
2022/07/29 10:44:51;;;;;;;2.88;1.85;;;24.40;90.50;;;;;;5027808;28;20613;-68
2022/07/29 10:47:23;;;;;;;4.93;1.80;;;24.40;89.60;;;;;;5027390;28;20738;-68
2022/07/29 10:49:58;;;;;;;6.40;2.17;;;24.50;90.00;;;;;;5027742;28;20211;-68
2022/07/29 10:52:27;;;;;;;3.78;2.13;;;24.50;90.20;;;;;;5028039;28;20204;-68
2022/07/29 10:54:55;;;;;;;4.93;1.85;;;24.60;90.20;;;;;;5027835;28;20209;-68
2022/07/29 10:57:28;;;;;;;4.53;1.88;;;24.80;89.90;;;;;;5027420;28;20324;-68
2022/07/29 11:00:31;;;;;;;5.60;1.95;;;24.90;90.10;;;;;;5027824;28;20235;-68
2022/07/29 11:02:59;;;;;;;2.75;2.00;;;25.10;90.00;;;;;;5027662;28;20651;-68
2022/07/29 11:05:29;;;;;;;10.73;2.15;;;25.00;90.10;;;;;;5027514;28;20236;-68
2022/07/29 11:08:25;;;;;;;5.68;1.80;;;25.10;90.40;;;;;;5027866;28;20238;-68
2022/07/29 11:10:54;;;;;;;5.32;2.08;;;25.30;88.80;;;;;;5027097;28;20208;-68
2022/07/29 11:13:51;;;;;;;2.55;1.80;;;25.30;89.30;;;;;;5027593;28;20212;-68
2022/07/29 11:16:21;;;;;;;3.03;1.88;;;25.40;89.30;;;;;;5027306;28;20731;-68
2022/07/29 11:19:22;;;;;;;2.60;1.70;;;25.60;88.60;;;;;;5027830;28;20201;-68
2022/07/29 11:21:50;;;;;;;7.70;1.85;;;25.80;88.50;;;;;;5027575;28;20228;-68
2022/07/29 11:24:20;;;;;;;2.30;1.58;;;26.00;88.10;;;;;;5027081;28;20217;-68
2022/07/29 11:27:10;;;;;;;3.70;1.40;;;26.10;87.30;;;;;;5027265;28;20648;-69
2022/07/29 11:29:41;;;;;;;4.40;2.13;;;26.40;86.70;;;;;;5027567;28;20517;-69
2022/07/29 11:32:14;;;;;;;8.20;2.30;;;26.50;86.90;;;;;;5027244;28;20401;-69
2022/07/29 11:34:41;;;;;;;2.67;1.90;;;26.80;86.30;;;;;;5027371;28;20212;-69
2022/07/29 11:37:26;;;;;;;2.88;1.80;;;27.10;85.50;;;;;;5027197;28;20308;-69
2022/07/29 11:40:13;;;;;;;3.47;2.03;;;27.20;84.50;;;;;;5027405;28;20193;-69
2022/07/29 11:42:45;;;;;;;2.35;1.85;;;27.40;84.60;;;;;;5027266;28;20287;-69
2022/07/29 11:45:15;;;;;;;4.43;2.10;;;27.50;85.20;;;;;;5026991;28;20219;-68
2022/07/29 11:47:48;;;;;;;14.75;2.83;;;27.70;84.50;;;;;;5027022;28;20240;-69
2022/07/29 11:50:17;;;;;;;4.45;2.20;;;27.80;84.80;;;;;;5027089;28;20200;-69
2022/07/29 11:52:46;;;;;;;3.60;1.77;;;27.90;83.60;;;;;;5027105;28;20209;-69
2022/07/29 11:55:15;;;;;;;6.28;2.28;;;27.80;83.20;;;;;;5026838;28;20255;-69
2022/07/29 11:57:49;;;;;;;3.00;2.10;;;27.70;83.20;;;;;;5026801;28;20240;-69
2022/07/29 12:00:25;;;;;;;4.18;2.00;;;27.60;83.60;;;;;;5026846;28;20221;-69
2022/07/29 12:02:52;;;;;;;3.83;2.20;;;27.60;84.40;;;;;;5027048;28;20221;-69
2022/07/29 12:05:20;;;;;;;3.90;2.13;;;27.60;84.30;;;;;;5026584;28;20208;-69
2022/07/29 12:07:48;;;;;;;4.38;2.10;;;27.80;85.60;;;;;;5026936;28;20242;-69
2022/07/29 12:10:15;;;;;;;6.55;2.20;;;27.80;85.10;;;;;;5026373;28;20211;-69
2022/07/29 12:12:42;;;;;;;3.50;1.92;;;28.00;85.00;;;;;;5027034;28;20667;-69
2022/07/29 12:15:20;;;;;;;3.42;1.92;;;28.10;85.20;;;;;;5026721;28;20661;-69
2022/07/29 12:17:48;;;;;;;3.33;2.15;;;28.30;84.10;;;;;;5026943;28;20284;-69
2022/07/29 12:20:24;;;;;;;4.00;2.20;;;28.40;83.80;;;;;;5027003;28;20219;-69
2022/07/29 12:22:53;;;;;;;4.82;2.45;;;28.60;85.00;;;;;;5028266;28;20204;-69
2022/07/29 12:25:20;;;;;;;2.45;2.25;;;28.80;84.70;;;;;;5030268;28;20971;-69
2022/07/29 12:27:47;;;;;;;3.95;2.05;;;28.90;84.80;;;;;;5030339;28;20260;-69
2022/07/29 12:30:15;;;;;;;5.43;3.05;;;29.10;84.30;;;;;;5030237;28;20204;-69
2022/07/29 12:32:44;;;;;;;2.50;2.20;;;29.10;82.40;;;;;;5029952;28;20228;-69
2022/07/29 12:35:14;;;;;;;3.78;2.20;;;29.20;83.50;;;;;;5029667;28;20205;-69
2022/07/29 12:37:43;;;;;;;4.45;2.15;;;29.30;83.60;;;;;;5030087;28;20589;-69
2022/07/29 12:40:12;;;;;;;3.60;2.28;;;29.30;81.70;;;;;;5028558;28;20205;-70
2022/07/29 12:42:40;;;;;;;21.75;4.55;;;29.40;83.20;;;;;;5029392;28;20201;-69
2022/07/29 12:45:08;;;;;;;2.70;2.47;;;29.40;85.00;;;;;;5029787;28;20236;-70
2022/07/29 12:47:52;;;;;;;3.13;1.90;;;29.30;83.90;;;;;;5020552;28;20241;-69
2022/07/29 12:50:21;;;;;;;3.40;2.35;;;29.20;85.00;;;;;;5007930;28;20204;-69
2022/07/29 12:52:48;;;;;;;4.10;2.45;;;29.30;84.30;;;;;;5025597;28;20213;-69
2022/07/29 12:55:15;;;;;;;3.75;2.30;;;29.20;83.80;;;;;;5027955;28;20725;-69
2022/07/29 12:57:47;;;;;;;2.75;2.53;;;29.30;84.70;;;;;;5024923;28;20351;-69